KLOL

Derby Field Airport

Lovelock, Nevada, USA
METAR KLOL 180753Z AUTO 04005KT 10SM CLR M10/M14 A3030 RMK AO2 SLP296 T11001144 400281150 TSNO
Observed Flight Rules
Dec-18 @ 07:53 UTC (58 minutes ago) Visual Flight Rules
Wind Visibility Clouds
40° at 5 knots 10 miles
  • Clear skies
Temperatures Readings
Current -10°C / 14°F
Dewpoint -14°C / 7°F
Humidity 73%
Altimeter 30.3" Hg
Pressure 1029.6 hPa
Elevation 1189
METAR KLOL 180753Z AUTO 04005KT 10SM CLR M10/M14 A3030 RMK AO2 SLP296 T11001144 400281150 TSNO
Observed Flight Rules
Dec-18 @ 07:53 UTC
(58 minutes ago)
VFR
Wind Visibility
40° at 5 knots 10 miles
Clouds
  • Clear skies
Temperature Dewpoint
-10°C / 14°F -14°C / 7°F
Humidity Altimeter Pressure
73% 30.3" Hg 1029.6 hPa